createdAt,value
2018-12-23T00:00:19.024Z,26.93
2018-12-23T00:02:47.417Z,24.87
2018-12-23T00:05:15.868Z,24.67
2018-12-23T00:07:44.426Z,21.23
2018-12-23T00:10:12.887Z,21.03
2018-12-23T00:12:41.315Z,18.30
2018-12-23T00:15:09.848Z,26.43
2018-12-23T00:17:38.281Z,22.67
2018-12-23T00:20:08.590Z,22.40
2018-12-23T00:22:36.990Z,20.30
2018-12-23T00:25:05.662Z,21.03
2018-12-23T00:27:34.057Z,21.27
2018-12-23T00:30:02.495Z,22.93
2018-12-23T00:32:30.890Z,25.80
2018-12-23T00:34:59.316Z,28.67
2018-12-23T00:37:27.794Z,22.13
2018-12-23T00:39:56.194Z,26.50
2018-12-23T00:42:24.607Z,24.93
2018-12-23T00:44:53.402Z,27.83
2018-12-23T00:47:21.818Z,28.00
2018-12-23T00:49:50.267Z,23.93
2018-12-23T00:52:18.648Z,22.23
2018-12-23T00:54:47.193Z,26.17
2018-12-23T00:57:15.639Z,28.03
2018-12-23T00:59:44.067Z,19.80
2018-12-23T01:02:12.495Z,26.93
2018-12-23T01:04:40.938Z,24.30
2018-12-23T01:07:09.752Z,24.83
2018-12-23T01:09:38.155Z,25.17
2018-12-23T01:12:06.581Z,28.07
2018-12-23T01:14:34.995Z,22.80
2018-12-23T01:17:03.435Z,25.97
2018-12-23T01:19:31.843Z,27.17
2018-12-23T01:22:00.366Z,22.37
2018-12-23T01:24:28.786Z,33.93
2018-12-23T01:26:57.213Z,28.33
2018-12-23T01:29:25.609Z,26.57
2018-12-23T01:31:54.023Z,26.13
2018-12-23T01:34:22.437Z,32.47
2018-12-23T01:36:50.849Z,31.73
2018-12-23T01:39:19.238Z,25.27
2018-12-23T01:41:47.688Z,26.67
2018-12-23T01:44:16.107Z,23.77
2018-12-23T01:46:44.531Z,27.90
2018-12-23T01:49:12.944Z,28.90
2018-12-23T01:51:41.393Z,27.97
2018-12-23T01:54:09.773Z,30.30
2018-12-23T01:56:38.206Z,31.67
2018-12-23T01:59:06.634Z,29.60
2018-12-23T02:01:35.098Z,35.30
2018-12-23T02:04:03.494Z,27.27
2018-12-23T02:06:31.955Z,31.60
2018-12-23T02:09:00.362Z,31.90
2018-12-23T02:11:28.773Z,36.17
2018-12-23T02:13:57.179Z,33.93
2018-12-23T02:16:25.741Z,29.07
2018-12-23T02:18:54.149Z,35.97
2018-12-23T02:21:22.597Z,38.93
2018-12-23T02:23:51.049Z,32.03
2018-12-23T02:26:19.566Z,36.53
2018-12-23T02:28:47.979Z,30.47
2018-12-23T02:31:16.388Z,36.67
2018-12-23T02:33:44.783Z,30.60
2018-12-23T02:36:13.331Z,31.93
2018-12-23T02:38:41.751Z,29.43
2018-12-23T02:41:10.196Z,36.03
2018-12-23T02:43:38.600Z,26.20
2018-12-23T02:46:07.036Z,30.00
2018-12-23T02:48:35.445Z,33.87
2018-12-23T02:51:03.860Z,28.60
2018-12-23T02:53:32.274Z,41.97
2018-12-23T02:56:00.715Z,45.27
2018-12-23T02:58:29.107Z,32.87
2018-12-23T03:00:57.672Z,39.13
2018-12-23T03:03:26.182Z,32.23
2018-12-23T03:05:54.590Z,31.07
2018-12-23T03:08:23.007Z,30.07
2018-12-23T03:10:51.454Z,39.33
2018-12-23T03:13:19.872Z,39.07
2018-12-23T03:15:48.367Z,35.37
2018-12-23T03:18:16.806Z,33.40
2018-12-23T03:20:45.227Z,29.50
2018-12-23T03:23:13.638Z,33.77
2018-12-23T03:25:42.048Z,37.07
2018-12-23T03:28:10.447Z,31.07
2018-12-23T03:30:38.852Z,37.03
2018-12-23T03:33:07.273Z,36.03
2018-12-23T03:35:35.814Z,42.63
2018-12-23T03:38:04.373Z,46.03
2018-12-23T03:40:33.103Z,47.53
2018-12-23T03:43:01.672Z,40.47
2018-12-23T03:45:30.097Z,35.00
2018-12-23T03:47:58.509Z,33.63
2018-12-23T03:50:26.900Z,42.30
2018-12-23T03:52:55.324Z,54.07
2018-12-23T03:55:23.922Z,47.10
2018-12-23T03:57:52.377Z,38.20
2018-12-23T04:00:20.877Z,25.10
2018-12-23T04:02:49.285Z,41.57
2018-12-23T04:05:17.710Z,38.90
2018-12-23T04:07:46.113Z,31.53
2018-12-23T04:10:14.526Z,34.60
2018-12-23T04:12:42.914Z,26.03
2018-12-23T04:15:11.318Z,39.73
2018-12-23T04:17:39.721Z,31.47
2018-12-23T04:20:08.150Z,27.93
2018-12-23T04:22:36.558Z,43.10
2018-12-23T04:25:05.387Z,34.20
2018-12-23T04:27:33.778Z,26.77
2018-12-23T04:30:02.208Z,33.10
2018-12-23T04:32:30.593Z,34.13
2018-12-23T04:34:59.037Z,38.53
2018-12-23T04:37:27.434Z,29.03
2018-12-23T04:39:55.856Z,41.70
2018-12-23T04:42:24.251Z,26.30
2018-12-23T04:44:52.660Z,46.43
2018-12-23T04:47:21.069Z,37.47
2018-12-23T04:49:49.558Z,33.20
2018-12-23T04:52:17.968Z,38.50
2018-12-23T04:54:46.423Z,25.20
2018-12-23T04:57:14.894Z,40.27
2018-12-23T04:59:43.277Z,33.10
2018-12-23T05:02:11.699Z,36.23
2018-12-23T05:04:40.135Z,34.80
2018-12-23T05:07:08.542Z,35.17
2018-12-23T05:09:36.928Z,34.17
2018-12-23T05:12:05.340Z,35.97
2018-12-23T05:14:33.734Z,26.43
2018-12-23T05:17:02.125Z,30.07
2018-12-23T05:19:30.521Z,34.93
2018-12-23T05:21:58.943Z,32.93
2018-12-23T05:24:27.436Z,32.17
2018-12-23T05:26:55.859Z,39.13
2018-12-23T05:29:24.258Z,29.30
2018-12-23T05:31:52.747Z,37.23
2018-12-23T05:34:21.181Z,38.23
2018-12-23T05:36:52.557Z,27.97
2018-12-23T05:39:20.031Z,34.60
2018-12-23T05:41:48.430Z,37.27
2018-12-23T05:44:16.859Z,35.63
2018-12-23T05:46:45.305Z,33.60
2018-12-23T05:49:13.731Z,27.27
2018-12-23T05:51:42.154Z,22.07
2018-12-23T05:54:10.555Z,21.57
2018-12-23T05:56:38.975Z,25.47
2018-12-23T05:59:07.433Z,29.90
2018-12-23T06:01:35.823Z,25.83
2018-12-23T06:04:04.267Z,21.57
2018-12-23T06:06:32.670Z,24.80
2018-12-23T06:09:01.104Z,30.13
2018-12-23T06:11:29.502Z,30.07
2018-12-23T06:13:57.907Z,33.70
2018-12-23T06:16:26.286Z,29.93
2018-12-23T06:18:54.707Z,36.17
2018-12-23T06:21:23.104Z,21.03
2018-12-23T06:23:51.565Z,28.63
2018-12-23T06:26:19.981Z,26.90
2018-12-23T06:28:48.388Z,20.80
2018-12-23T06:31:16.798Z,31.40
2018-12-23T06:33:45.247Z,24.73
2018-12-23T06:36:13.730Z,27.37
2018-12-23T06:38:42.278Z,25.70
2018-12-23T06:41:10.701Z,34.37
2018-12-23T06:43:39.118Z,26.87
2018-12-23T06:46:07.752Z,19.13
2018-12-23T06:48:36.139Z,26.30
2018-12-23T06:51:04.543Z,27.63
2018-12-23T06:53:33.062Z,19.43
2018-12-23T06:56:01.476Z,28.27
2018-12-23T06:58:29.879Z,23.37
2018-12-23T07:00:58.288Z,21.07
2018-12-23T07:03:26.691Z,21.10
2018-12-23T07:05:55.127Z,20.60
2018-12-23T07:08:23.519Z,25.17
2018-12-23T07:10:51.918Z,21.00
2018-12-23T07:13:20.461Z,21.63
2018-12-23T07:15:48.870Z,22.40
2018-12-23T07:18:17.283Z,24.77
2018-12-23T07:20:45.717Z,23.93
2018-12-23T07:23:14.157Z,23.67
2018-12-23T07:25:42.567Z,18.87
2018-12-23T07:28:10.962Z,17.23
2018-12-23T07:30:39.378Z,24.97
2018-12-23T07:33:07.891Z,21.63
2018-12-23T07:35:36.290Z,21.97
2018-12-23T07:38:05.194Z,24.87
2018-12-23T07:40:34.415Z,18.23
2018-12-23T07:43:02.860Z,13.07
2018-12-23T07:45:31.288Z,14.47
2018-12-23T07:47:59.710Z,21.77
2018-12-23T07:50:28.189Z,17.17
2018-12-23T07:52:56.691Z,24.87
2018-12-23T07:55:25.200Z,23.60
2018-12-23T07:57:53.626Z,17.57
2018-12-23T08:00:22.050Z,18.37
2018-12-23T08:02:50.606Z,24.37
2018-12-23T08:05:19.154Z,21.30
2018-12-23T08:07:47.661Z,20.60
2018-12-23T08:10:16.141Z,15.63
2018-12-23T08:12:44.569Z,16.23
2018-12-23T08:15:12.990Z,21.47
2018-12-23T08:17:41.428Z,20.57
2018-12-23T08:20:09.840Z,19.77
2018-12-23T08:22:38.255Z,14.43
2018-12-23T08:25:06.687Z,14.07
2018-12-23T08:27:35.073Z,23.67
2018-12-23T08:30:03.811Z,15.80
2018-12-23T08:32:32.226Z,18.73
2018-12-23T08:35:00.629Z,12.67
2018-12-23T08:37:29.078Z,17.37
2018-12-23T08:39:57.495Z,13.77
2018-12-23T08:42:26.026Z,16.93
2018-12-23T08:44:54.421Z,18.13
2018-12-23T08:47:22.840Z,15.40
2018-12-23T08:49:51.241Z,16.70
2018-12-23T08:52:19.680Z,20.67
2018-12-23T08:54:48.121Z,14.80
2018-12-23T08:57:16.531Z,20.77
2018-12-23T08:59:44.954Z,11.97
2018-12-23T09:02:13.375Z,12.90
2018-12-23T09:04:41.772Z,14.63
2018-12-23T09:07:10.178Z,15.73
2018-12-23T09:09:38.835Z,18.80
2018-12-23T09:12:07.246Z,16.63
2018-12-23T09:14:35.644Z,13.57
2018-12-23T09:17:04.209Z,17.20
2018-12-23T09:19:32.602Z,16.37
2018-12-23T09:22:01.062Z,17.53
2018-12-23T09:24:29.455Z,12.67
2018-12-23T09:26:57.927Z,12.30
2018-12-23T09:29:26.858Z,14.17
2018-12-23T09:31:55.347Z,16.50
2018-12-23T09:34:23.742Z,18.47
2018-12-23T09:36:52.138Z,17.20
2018-12-23T09:39:20.960Z,21.00
2018-12-23T09:41:49.364Z,26.13
2018-12-23T09:44:17.900Z,14.00
2018-12-23T09:46:46.330Z,14.90
2018-12-23T09:49:14.739Z,13.07
2018-12-23T09:51:43.137Z,15.20
2018-12-23T09:54:11.751Z,18.57
2018-12-23T09:56:40.168Z,15.73
2018-12-23T09:59:08.702Z,11.60
2018-12-23T10:01:37.118Z,14.60
2018-12-23T10:04:05.530Z,13.83
2018-12-23T10:06:33.912Z,15.20
2018-12-23T10:09:02.553Z,19.50
2018-12-23T10:11:31.038Z,23.40
2018-12-23T10:13:59.576Z,18.40
2018-12-23T10:16:28.127Z,13.17
2018-12-23T10:18:56.612Z,12.10
2018-12-23T10:21:25.038Z,19.27
2018-12-23T10:23:53.459Z,14.90
2018-12-23T10:26:21.995Z,14.90
2018-12-23T10:28:50.415Z,15.43
2018-12-23T10:31:18.851Z,10.90
2018-12-23T10:33:47.283Z,9.93
2018-12-23T10:36:15.748Z,15.60
2018-12-23T10:38:44.198Z,17.47
2018-12-23T10:41:12.611Z,18.53
2018-12-23T10:43:41.231Z,13.83
2018-12-23T10:46:09.658Z,34.67
2018-12-23T15:40:35.664Z,10.87
2018-12-23T15:51:09.534Z,8.70
2018-12-23T15:58:14.844Z,11.13
2018-12-23T16:04:32.836Z,12.63
2018-12-23T16:11:06.996Z,10.57
2018-12-23T16:16:40.368Z,12.90
2018-12-23T16:19:29.340Z,10.47
2018-12-23T16:21:59.433Z,10.70
2018-12-23T16:24:29.147Z,19.20
2018-12-23T16:27:18.120Z,9.13
2018-12-23T16:29:47.879Z,15.10
2018-12-23T16:32:18.263Z,9.50
2018-12-23T16:35:06.047Z,10.43
2018-12-23T16:37:54.771Z,10.53
2018-12-23T16:40:43.491Z,12.70
2018-12-23T16:43:13.658Z,7.87
2018-12-23T16:46:02.321Z,12.90
2018-12-23T16:48:32.356Z,7.20
2018-12-23T16:51:02.068Z,12.87
2018-12-23T16:53:32.127Z,7.50
2018-12-23T16:59:44.888Z,5.20
2018-12-23T17:02:15.264Z,9.47
2018-12-23T17:05:04.260Z,5.80
2018-12-23T17:11:15.881Z,7.87
2018-12-23T17:17:05.382Z,7.40
2018-12-23T17:22:51.314Z,8.53
2018-12-23T17:25:51.972Z,10.03
2018-12-23T17:28:21.976Z,10.07
2018-12-23T17:30:51.741Z,6.53
2018-12-23T17:33:21.545Z,8.33
2018-12-23T17:35:51.631Z,8.40
2018-12-23T17:38:21.352Z,7.97
2018-12-23T17:47:47.931Z,8.30
2018-12-23T17:50:54.291Z,11.60
2018-12-23T22:23:16.164Z,1.30
2018-12-23T22:33:03.652Z,1.50
2018-12-23T22:41:41.953Z,2.20
2018-12-23T22:58:15.816Z,2.55
2018-12-23T23:25:50.968Z,7.00
2018-12-23T23:34:53.044Z,8.17
2018-12-23T23:45:07.772Z,6.47
